createdAt,value
2023-03-24T00:00:02.347Z,61.82
2023-03-24T00:02:00.037Z,62.94
2023-03-24T00:03:29.367Z,63.70
2023-03-24T00:04:53.667Z,61.48
2023-03-24T00:06:27.122Z,58.07
2023-03-24T00:08:02.845Z,55.81
2023-03-24T00:09:36.685Z,56.02
2023-03-24T00:11:10.275Z,57.13
2023-03-24T00:12:34.395Z,58.32
2023-03-24T00:13:58.627Z,59.49
2023-03-24T00:15:20.953Z,60.36
2023-03-24T00:17:05.032Z,61.34
2023-03-24T00:18:31.436Z,62.14
2023-03-24T00:19:56.022Z,63.38
2023-03-24T00:21:21.568Z,63.35
2023-03-24T00:22:48.397Z,61.02
2023-03-24T00:24:19.582Z,57.90
2023-03-24T00:25:54.431Z,55.75
2023-03-24T00:27:31.629Z,56.42
2023-03-24T00:29:05.397Z,57.68
2023-03-24T00:30:38.984Z,59.31
2023-03-24T00:32:01.516Z,60.26
2023-03-24T00:33:27.734Z,61.14
2023-03-24T00:34:57.158Z,62.19
2023-03-24T00:36:31.106Z,63.68
2023-03-24T00:38:04.245Z,63.03
2023-03-24T00:39:28.536Z,60.28
2023-03-24T00:40:51.267Z,57.50
2023-03-24T00:42:15.529Z,55.85
2023-03-24T00:43:40.301Z,56.46
2023-03-24T00:45:03.958Z,57.62
2023-03-24T00:46:39.160Z,59.06
2023-03-24T00:48:12.829Z,60.11
2023-03-24T00:49:43.318Z,61.31
2023-03-24T00:51:05.583Z,62.21
2023-03-24T00:52:34.041Z,63.32
2023-03-24T00:53:57.867Z,63.12
2023-03-24T00:55:24.143Z,60.90
2023-03-24T00:56:53.416Z,58.05
2023-03-24T00:58:31.462Z,55.99
2023-03-24T01:00:06.901Z,56.44
2023-03-24T01:01:34.641Z,57.73
2023-03-24T01:03:10.792Z,58.93
2023-03-24T01:04:36.785Z,60.24
2023-03-24T01:05:58.438Z,61.45
2023-03-24T01:07:32.423Z,62.28
2023-03-24T01:09:17.266Z,63.95
2023-03-24T01:10:50.935Z,63.05
2023-03-24T01:12:26.692Z,59.82
2023-03-24T01:14:00.421Z,56.73
2023-03-24T01:15:29.665Z,56.16
2023-03-24T01:17:10.410Z,57.19
2023-03-24T01:18:35.005Z,58.67
2023-03-24T01:20:07.054Z,59.88
2023-03-24T01:21:41.172Z,61.01
2023-03-24T01:23:16.629Z,62.12
2023-03-24T01:24:58.669Z,63.55
2023-03-24T01:26:20.498Z,63.30
2023-03-24T01:27:54.486Z,60.16
2023-03-24T01:29:27.889Z,56.94
2023-03-24T01:31:13.071Z,56.16
2023-03-24T01:32:35.108Z,56.89
2023-03-24T01:34:08.500Z,58.34
2023-03-24T01:35:32.460Z,59.36
2023-03-24T01:37:06.109Z,60.82
2023-03-24T01:38:27.981Z,61.78
2023-03-24T01:40:02.218Z,63.00
2023-03-24T01:41:35.397Z,63.91
2023-03-24T01:42:57.131Z,62.21
2023-03-24T01:44:26.463Z,59.74
2023-03-24T01:46:08.283Z,56.78
2023-03-24T01:47:34.770Z,56.26
2023-03-24T01:49:04.073Z,57.30
2023-03-24T01:50:37.905Z,58.62
2023-03-24T01:52:19.221Z,60.10
2023-03-24T01:54:13.015Z,61.64
2023-03-24T01:55:58.453Z,63.01
2023-03-24T01:57:50.480Z,64.00
2023-03-24T01:59:26.413Z,60.82
2023-03-24T02:01:14.387Z,57.52
2023-03-24T02:03:43.159Z,56.45
2023-03-24T02:05:12.575Z,57.74
2023-03-24T02:06:36.958Z,59.40
2023-03-24T02:08:12.805Z,61.02
2023-03-24T02:09:57.457Z,62.33
2023-03-24T02:11:28.768Z,64.05
2023-03-24T02:12:55.493Z,62.97
2023-03-24T02:14:28.841Z,60.56
2023-03-24T02:15:58.634Z,57.65
2023-03-24T02:17:34.174Z,56.32
2023-03-24T02:19:10.046Z,57.19
2023-03-24T02:20:41.517Z,59.06
2023-03-24T02:22:14.974Z,60.66
2023-03-24T02:23:50.589Z,62.30
2023-03-24T02:25:24.106Z,63.97
2023-03-24T02:27:06.234Z,63.40
2023-03-24T02:28:42.186Z,59.98
2023-03-24T02:30:15.490Z,57.04
2023-03-24T02:32:05.946Z,56.44
2023-03-24T02:33:48.458Z,57.67
2023-03-24T02:35:33.017Z,59.42
2023-03-24T02:37:18.990Z,61.08
2023-03-24T02:39:05.468Z,62.86
2023-03-24T02:41:00.478Z,64.20
2023-03-24T02:42:45.303Z,61.44
2023-03-24T02:44:10.377Z,58.53
2023-03-24T02:45:46.158Z,56.52
2023-03-24T02:47:22.078Z,56.98
2023-03-24T02:48:58.143Z,58.53
2023-03-24T02:50:31.931Z,59.84
2023-03-24T02:52:16.925Z,61.28
2023-03-24T02:54:08.313Z,62.53
2023-03-24T02:55:49.402Z,64.07
2023-03-24T02:57:34.852Z,61.65
2023-03-24T02:59:55.061Z,56.81
2023-03-24T03:01:49.548Z,56.37
2023-03-24T03:03:38.123Z,57.65
2023-03-24T03:05:02.331Z,59.12
2023-03-24T03:06:56.007Z,60.55
2023-03-24T03:08:32.763Z,62.01
2023-03-24T03:10:08.728Z,63.68
2023-03-24T03:11:44.526Z,63.56
2023-03-24T03:13:15.831Z,61.00
2023-03-24T03:15:00.980Z,57.86
2023-03-24T03:16:27.166Z,56.31
2023-03-24T03:18:00.570Z,57.04
2023-03-24T03:19:22.581Z,58.56
2023-03-24T03:20:58.517Z,60.04
2023-03-24T03:22:29.028Z,61.30
2023-03-24T03:23:53.591Z,62.43
2023-03-24T03:25:38.462Z,64.24
2023-03-24T03:27:20.030Z,62.98
2023-03-24T03:28:43.278Z,60.20
2023-03-24T03:30:30.071Z,57.18
2023-03-24T03:32:11.516Z,56.46
2023-03-24T03:33:35.676Z,57.72
2023-03-24T03:35:09.143Z,59.36
2023-03-24T03:36:45.285Z,60.67
2023-03-24T03:38:06.817Z,61.98
2023-03-24T03:39:42.466Z,63.36
2023-03-24T03:41:16.696Z,63.70
2023-03-24T03:42:52.798Z,61.47
2023-03-24T03:44:18.972Z,58.47
2023-03-24T03:45:52.566Z,56.33
2023-03-24T03:47:34.607Z,56.89
2023-03-24T03:49:05.892Z,58.64
2023-03-24T03:50:28.148Z,60.02
2023-03-24T03:52:05.857Z,61.31
2023-03-24T03:53:39.590Z,62.95
2023-03-24T03:55:20.492Z,64.09
2023-03-24T03:57:03.510Z,62.37
2023-03-24T03:59:17.487Z,58.13
2023-03-24T04:00:49.311Z,56.22
2023-03-24T04:02:55.501Z,57.71
2023-03-24T04:04:20.351Z,59.23
2023-03-24T04:06:09.591Z,60.88
2023-03-24T04:07:53.397Z,62.03
2023-03-24T04:09:57.694Z,64.24
2023-03-24T04:13:45.341Z,58.69
2023-03-24T04:18:02.655Z,57.68
2023-03-24T04:19:53.499Z,59.70
2023-03-24T04:21:28.273Z,61.22
2023-03-24T04:23:14.399Z,62.43
2023-03-24T04:24:55.547Z,64.11
2023-03-24T04:26:38.253Z,62.20
2023-03-24T04:28:09.952Z,58.89
2023-03-24T04:29:47.241Z,56.30
2023-03-24T04:31:26.099Z,56.78
2023-03-24T04:33:11.154Z,58.39
2023-03-24T04:34:45.565Z,60.03
2023-03-24T04:36:43.452Z,61.64
2023-03-24T04:38:33.572Z,63.57
2023-03-24T04:40:28.070Z,63.54
2023-03-24T04:42:04.500Z,60.53
2023-03-24T04:43:51.705Z,57.49
2023-03-24T04:45:33.876Z,56.44
2023-03-24T04:47:24.025Z,57.92
2023-03-24T04:49:34.112Z,59.82
2023-03-24T04:51:07.885Z,61.39
2023-03-24T04:53:11.496Z,63.00
2023-03-24T04:55:05.483Z,63.67
2023-03-24T04:56:55.507Z,60.76
2023-03-24T04:58:31.163Z,57.14
2023-03-24T05:00:08.144Z,56.39
2023-03-24T05:01:53.535Z,57.84
2023-03-24T05:03:39.483Z,59.44
2023-03-24T05:05:14.947Z,61.17
2023-03-24T05:07:11.034Z,62.73
2023-03-24T05:08:52.344Z,64.20
2023-03-24T05:10:32.846Z,61.93
2023-03-24T05:12:18.146Z,58.94
2023-03-24T05:14:26.950Z,56.52
2023-03-24T05:16:08.011Z,57.57
2023-03-24T05:17:48.268Z,59.22
2023-03-24T05:19:24.278Z,60.78
2023-03-24T05:21:19.448Z,62.21
2023-03-24T05:22:55.322Z,64.10
2023-03-24T05:24:35.841Z,63.22
2023-03-24T05:26:01.929Z,60.43
2023-03-24T05:27:48.882Z,57.47
2023-03-24T05:29:33.279Z,56.76
2023-03-24T05:31:18.495Z,58.00
2023-03-24T05:33:02.087Z,59.63
2023-03-24T05:34:55.064Z,61.41
2023-03-24T05:36:51.266Z,63.35
2023-03-24T05:38:38.549Z,63.61
2023-03-24T05:40:12.522Z,61.05
2023-03-24T05:42:04.355Z,57.43
2023-03-24T05:43:49.618Z,56.48
2023-03-24T05:45:33.984Z,57.72
2023-03-24T05:47:10.421Z,59.36
2023-03-24T05:48:55.649Z,60.95
2023-03-24T05:50:42.473Z,62.43
2023-03-24T05:52:16.095Z,64.42
2023-03-24T05:53:42.228Z,63.20
2023-03-24T05:55:11.043Z,60.59
2023-03-24T05:56:44.447Z,57.84
2023-03-24T05:59:20.425Z,56.99
2023-03-24T06:00:48.111Z,58.82
2023-03-24T06:02:40.040Z,60.51
2023-03-24T06:04:24.444Z,62.47
2023-03-24T06:05:59.748Z,64.77
2023-03-24T06:07:45.007Z,63.58
2023-03-24T06:09:18.011Z,60.98
2023-03-24T06:11:02.243Z,59.13
2023-03-24T06:12:38.287Z,57.46
2023-03-24T06:14:18.739Z,58.53
2023-03-24T06:16:03.800Z,60.63
2023-03-24T06:17:58.420Z,62.65
2023-03-24T06:19:47.458Z,65.07
2023-03-24T06:21:18.595Z,63.47
2023-03-24T06:23:05.651Z,61.22
2023-03-24T06:24:39.560Z,58.77
2023-03-24T06:26:22.778Z,57.41
2023-03-24T06:28:04.229Z,58.66
2023-03-24T06:29:49.271Z,60.71
2023-03-24T06:31:24.864Z,62.60
2023-03-24T06:33:01.061Z,64.97
2023-03-24T06:34:39.051Z,64.03
2023-03-24T06:37:01.639Z,60.96
2023-03-24T06:38:54.518Z,58.41
2023-03-24T06:40:39.692Z,57.93
2023-03-24T06:42:09.795Z,59.30
2023-03-24T06:43:45.828Z,61.11
2023-03-24T06:45:31.342Z,63.52
2023-03-24T06:47:07.253Z,64.47
2023-03-24T06:48:53.477Z,62.52
2023-03-24T06:50:42.492Z,60.18
2023-03-24T06:52:30.617Z,57.78
2023-03-24T06:54:09.732Z,57.95
2023-03-24T06:55:43.376Z,59.91
2023-03-24T06:57:08.377Z,61.38
2023-03-24T06:59:06.293Z,63.30
2023-03-24T07:00:35.631Z,63.99
2023-03-24T07:02:05.952Z,62.07
2023-03-24T07:03:44.115Z,59.89
2023-03-24T07:06:03.248Z,56.95
2023-03-24T07:09:40.386Z,59.84
2023-03-24T07:11:13.438Z,61.57
2023-03-24T07:13:13.429Z,63.36
2023-03-24T07:14:58.982Z,64.24
2023-03-24T07:16:44.629Z,61.65
2023-03-24T07:18:43.175Z,58.17
2023-03-24T07:20:32.783Z,57.04
2023-03-24T07:22:09.811Z,58.38
2023-03-24T07:23:51.896Z,60.24
2023-03-24T07:25:43.872Z,61.56
2023-03-24T07:27:35.144Z,63.74
2023-03-24T07:29:15.944Z,62.89
2023-03-24T07:31:40.086Z,59.24
2023-03-24T07:33:04.657Z,56.62
2023-03-24T07:34:50.542Z,56.67
2023-03-24T07:36:44.298Z,58.27
2023-03-24T07:38:40.939Z,60.36
2023-03-24T07:40:18.727Z,61.89
2023-03-24T07:41:59.505Z,63.93
2023-03-24T07:44:08.641Z,62.18
2023-03-24T07:45:55.116Z,59.23
2023-03-24T07:47:29.269Z,56.83
2023-03-24T07:49:19.450Z,57.08
2023-03-24T07:51:22.945Z,58.75
2023-03-24T07:52:47.269Z,60.41
2023-03-24T07:54:21.052Z,61.62
2023-03-24T07:55:45.893Z,62.74
2023-03-24T07:57:37.802Z,63.77
2023-03-24T07:59:02.362Z,61.08
2023-03-24T08:00:37.522Z,58.19
2023-03-24T08:02:45.505Z,56.27
2023-03-24T08:05:20.340Z,58.08
2023-03-24T08:07:18.077Z,59.54
2023-03-24T08:08:53.741Z,60.88
2023-03-24T08:10:36.442Z,61.84
2023-03-24T08:12:21.800Z,63.03
2023-03-24T08:13:55.186Z,63.35
2023-03-24T08:15:30.067Z,60.76
2023-03-24T08:16:52.344Z,57.48
2023-03-24T08:18:33.303Z,55.89
2023-03-24T08:20:04.734Z,56.52
2023-03-24T08:21:37.639Z,57.73
2023-03-24T08:23:30.981Z,58.76
2023-03-24T08:25:25.465Z,60.11
2023-03-24T08:27:10.266Z,61.17
2023-03-24T08:28:49.929Z,61.82
2023-03-24T08:30:44.473Z,62.80
2023-03-24T08:32:11.056Z,63.65
2023-03-24T08:33:47.143Z,60.91
2023-03-24T08:35:36.104Z,57.81
2023-03-24T08:37:11.868Z,55.74
2023-03-24T08:38:52.971Z,56.30
2023-03-24T08:40:36.459Z,56.99
2023-03-24T08:42:21.725Z,58.03
2023-03-24T08:44:07.851Z,58.63
2023-03-24T08:45:30.694Z,59.47
2023-03-24T08:47:15.913Z,59.90
2023-03-24T08:48:49.618Z,60.14
2023-03-24T08:50:34.401Z,60.72
2023-03-24T08:52:16.405Z,61.36
2023-03-24T08:53:40.923Z,61.62
2023-03-24T08:55:25.765Z,62.00
2023-03-24T08:56:54.964Z,62.14
2023-03-24T08:58:39.610Z,62.01
2023-03-24T09:00:31.512Z,61.75
2023-03-24T09:02:16.473Z,61.94
2023-03-24T09:04:05.096Z,62.11
2023-03-24T09:05:50.105Z,61.47
2023-03-24T09:07:22.892Z,61.37
2023-03-24T09:09:04.924Z,61.41
2023-03-24T09:10:49.802Z,61.42
2023-03-24T09:12:23.289Z,61.34
2023-03-24T09:14:00.108Z,61.68
2023-03-24T09:15:54.022Z,61.75
2023-03-24T09:17:29.537Z,61.96
2023-03-24T09:19:10.320Z,61.99
2023-03-24T09:23:01.618Z,62.37
2023-03-24T09:24:42.247Z,63.21
2023-03-24T09:26:15.506Z,61.67
2023-03-24T09:27:40.008Z,58.87
2023-03-24T09:29:15.487Z,55.30
2023-03-24T09:30:58.507Z,54.86
2023-03-24T09:32:20.286Z,55.46
2023-03-24T09:34:06.099Z,56.50
2023-03-24T09:35:37.856Z,57.44
2023-03-24T09:37:22.831Z,57.93
2023-03-24T09:39:19.745Z,58.70
2023-03-24T09:41:08.081Z,59.26
2023-03-24T09:42:41.712Z,59.87
2023-03-24T09:44:32.071Z,60.23
2023-03-24T09:46:05.662Z,60.65
2023-03-24T09:48:00.493Z,61.06
2023-03-24T09:49:41.214Z,61.53
2023-03-24T09:51:16.713Z,61.84
2023-03-24T09:52:40.841Z,62.93
2023-03-24T09:54:14.288Z,63.73
2023-03-24T09:55:48.016Z,62.07
2023-03-24T09:57:23.737Z,58.17
2023-03-24T09:59:06.471Z,55.14
2023-03-24T10:00:49.502Z,54.89
2023-03-24T10:02:34.917Z,55.87
2023-03-24T10:04:17.290Z,56.35
2023-03-24T10:05:58.046Z,57.35
2023-03-24T10:07:31.097Z,58.35
2023-03-24T10:08:58.324Z,58.58
2023-03-24T10:10:32.045Z,59.05
2023-03-24T10:12:05.751Z,59.56
2023-03-24T10:13:40.507Z,60.01
2023-03-24T10:15:14.976Z,60.31
2023-03-24T10:16:47.110Z,60.76
2023-03-24T10:18:20.772Z,61.25
2023-03-24T10:19:42.450Z,61.48
2023-03-24T10:21:37.449Z,61.50
2023-03-24T10:23:10.968Z,61.73
2023-03-24T10:24:53.857Z,61.89
2023-03-24T10:26:18.351Z,61.87
2023-03-24T10:27:50.143Z,62.16
2023-03-24T10:29:23.338Z,62.13
2023-03-24T10:31:05.047Z,62.28
2023-03-24T10:32:47.434Z,62.85
2023-03-24T10:34:22.826Z,62.35
2023-03-24T10:35:56.744Z,58.93
2023-03-24T10:37:31.571Z,55.81
2023-03-24T10:39:16.548Z,55.07
2023-03-24T10:40:53.576Z,55.61
2023-03-24T10:42:27.251Z,56.38
2023-03-24T10:44:03.171Z,57.30
2023-03-24T10:45:48.515Z,58.11
2023-03-24T10:47:12.411Z,58.81
2023-03-24T10:48:36.710Z,59.44
2023-03-24T10:50:14.434Z,59.85
2023-03-24T10:51:56.670Z,60.36
2023-03-24T10:53:41.525Z,60.80
2023-03-24T10:55:26.460Z,61.19
2023-03-24T10:57:10.752Z,61.53
2023-03-24T10:58:34.658Z,61.91
2023-03-24T11:00:26.420Z,61.96
2023-03-24T11:01:52.372Z,62.27
2023-03-24T11:03:21.894Z,62.24
2023-03-24T11:05:15.695Z,62.36
2023-03-24T11:07:10.471Z,62.98
2023-03-24T11:08:46.553Z,61.02
2023-03-24T11:10:22.181Z,57.31
2023-03-24T11:11:58.339Z,55.02
2023-03-24T11:13:29.340Z,54.92
2023-03-24T11:15:14.154Z,55.82
2023-03-24T11:16:50.540Z,56.41
2023-03-24T11:18:22.023Z,57.11
2023-03-24T11:19:58.147Z,57.91
2023-03-24T11:21:19.705Z,58.30
2023-03-24T11:23:05.640Z,58.84
2023-03-24T11:24:27.181Z,59.07
2023-03-24T11:26:02.664Z,59.50
2023-03-24T11:27:31.728Z,59.70
2023-03-24T11:29:06.269Z,59.50
2023-03-24T11:30:43.104Z,59.38
2023-03-24T11:32:08.440Z,59.52
2023-03-24T11:33:47.081Z,59.61
2023-03-24T11:35:13.292Z,59.64
2023-03-24T11:37:05.791Z,59.46
2023-03-24T11:38:37.187Z,59.14
2023-03-24T11:40:01.494Z,58.71
2023-03-24T11:41:42.294Z,58.11
2023-03-24T11:43:11.797Z,57.37
2023-03-24T11:45:00.320Z,57.06
2023-03-24T11:46:36.208Z,56.64
2023-03-24T11:48:12.489Z,56.30
2023-03-24T11:49:34.031Z,55.63
2023-03-24T11:51:18.913Z,54.66
2023-03-24T11:53:08.042Z,54.28
2023-03-24T11:54:32.964Z,53.96
2023-03-24T11:56:17.858Z,53.74
2023-03-24T11:57:51.347Z,53.86
2023-03-24T11:59:45.470Z,53.99
2023-03-24T12:01:19.516Z,54.00
2023-03-24T12:02:51.498Z,53.89
2023-03-24T12:04:25.120Z,53.84
2023-03-24T12:06:19.536Z,53.88
2023-03-24T12:07:53.357Z,54.13
2023-03-24T12:09:38.130Z,53.99
2023-03-24T12:11:13.673Z,53.76
2023-03-24T12:12:59.073Z,53.64
2023-03-24T12:14:44.149Z,53.18
2023-03-24T12:16:29.563Z,52.85
2023-03-24T12:18:14.633Z,52.88
2023-03-24T12:19:36.181Z,53.05
2023-03-24T12:21:21.945Z,52.89
2023-03-24T12:22:46.466Z,52.73
2023-03-24T12:24:40.481Z,52.55
2023-03-24T12:26:18.649Z,52.49
2023-03-24T12:28:04.323Z,52.30
2023-03-24T12:29:35.483Z,52.16
2023-03-24T12:31:20.775Z,52.48
2023-03-24T12:32:54.978Z,52.54
2023-03-24T12:34:28.199Z,52.51
2023-03-24T12:36:09.162Z,52.48
2023-03-24T12:37:40.133Z,52.46
2023-03-24T12:39:04.612Z,52.84
2023-03-24T12:40:28.380Z,52.57
2023-03-24T12:42:09.484Z,52.61
2023-03-24T12:43:43.327Z,52.57
2023-03-24T12:45:28.446Z,52.37
2023-03-24T12:47:13.795Z,52.49
2023-03-24T12:48:45.340Z,52.50
2023-03-24T12:52:29.380Z,52.10
2023-03-24T12:53:53.759Z,52.14
2023-03-24T12:55:27.542Z,52.36
2023-03-24T12:57:09.524Z,52.37
2023-03-24T12:58:53.413Z,52.70
2023-03-24T13:00:29.400Z,52.56
2023-03-24T13:02:04.895Z,52.59
2023-03-24T13:03:28.621Z,52.41
2023-03-24T13:05:04.563Z,52.04
2023-03-24T13:06:29.298Z,51.45
2023-03-24T13:08:14.483Z,51.38
2023-03-24T13:09:50.184Z,51.31
2023-03-24T13:11:34.620Z,51.12
2023-03-24T13:13:09.877Z,50.90
2023-03-24T13:14:51.876Z,50.66
2023-03-24T13:16:34.010Z,50.63
2023-03-24T13:17:58.575Z,50.47
2023-03-24T13:19:33.970Z,49.95
2023-03-24T13:21:09.888Z,49.89
2023-03-24T13:22:50.894Z,50.02
2023-03-24T13:24:14.867Z,50.30
2023-03-24T13:25:46.969Z,50.80
2023-03-24T13:27:20.401Z,50.97
2023-03-24T13:29:06.493Z,51.04
2023-03-24T13:30:27.980Z,50.88
2023-03-24T13:32:01.082Z,50.62
2023-03-24T13:33:46.161Z,50.32
2023-03-24T13:35:39.841Z,50.29
2023-03-24T13:37:21.113Z,50.09
2023-03-24T13:39:03.079Z,50.21
2023-03-24T13:40:32.349Z,50.10
2023-03-24T13:42:18.565Z,50.29
2023-03-24T13:44:03.934Z,50.51
2023-03-24T13:45:27.806Z,50.30
2023-03-24T13:47:04.984Z,50.33
2023-03-24T13:48:59.506Z,50.20
2023-03-24T13:50:35.557Z,50.48
2023-03-24T13:52:11.881Z,50.75
2023-03-24T13:53:41.070Z,51.09
2023-03-24T13:55:27.420Z,51.48
2023-03-24T13:56:51.888Z,51.63
2023-03-24T13:58:46.522Z,51.76
2023-03-24T14:00:40.501Z,52.06
2023-03-24T14:02:21.929Z,52.23
2023-03-24T14:04:10.643Z,52.51
2023-03-24T14:05:44.323Z,52.70
2023-03-24T14:07:18.324Z,52.76
2023-03-24T14:09:03.678Z,52.45
2023-03-24T14:10:37.040Z,52.64
2023-03-24T14:12:22.422Z,52.88
2023-03-24T14:13:59.604Z,52.84
2023-03-24T14:15:23.420Z,52.90
2023-03-24T14:16:57.191Z,52.49
2023-03-24T14:18:39.532Z,52.39
2023-03-24T14:20:25.001Z,52.31
2023-03-24T14:22:18.549Z,52.31
2023-03-24T14:23:59.219Z,52.43
2023-03-24T14:25:53.526Z,52.53
2023-03-24T14:27:27.069Z,52.56
2023-03-24T14:29:00.395Z,52.75
2023-03-24T14:30:53.625Z,52.83
2023-03-24T14:32:27.054Z,52.89
2023-03-24T14:34:03.892Z,52.90
2023-03-24T14:35:25.663Z,53.00
2023-03-24T14:36:55.223Z,53.13
2023-03-24T14:38:20.606Z,53.32
2023-03-24T14:40:05.753Z,53.30
2023-03-24T14:41:49.259Z,53.32
2023-03-24T14:43:22.622Z,53.11
2023-03-24T14:45:14.200Z,53.13
2023-03-24T14:46:55.833Z,53.24
2023-03-24T14:48:36.481Z,53.39
2023-03-24T14:50:10.423Z,53.02
2023-03-24T14:51:43.982Z,53.10
2023-03-24T14:53:08.172Z,53.09
2023-03-24T14:54:55.573Z,53.18
2023-03-24T14:56:44.925Z,53.21
2023-03-24T14:58:18.107Z,53.25
2023-03-24T15:00:05.902Z,53.44
2023-03-24T15:04:01.335Z,53.70
2023-03-24T15:05:46.751Z,53.87
2023-03-24T15:07:20.137Z,54.13
2023-03-24T15:08:56.533Z,54.14
2023-03-24T15:10:25.689Z,54.30
2023-03-24T15:12:09.884Z,54.52
2023-03-24T15:13:33.806Z,54.92
2023-03-24T15:15:10.561Z,55.20
2023-03-24T15:16:43.705Z,55.37
2023-03-24T15:18:18.037Z,55.89
2023-03-24T15:19:42.284Z,55.80
2023-03-24T15:21:17.735Z,55.68
2023-03-24T15:23:03.236Z,55.58
2023-03-24T15:24:38.794Z,55.73
2023-03-24T15:26:08.237Z,55.99
2023-03-24T15:27:43.606Z,56.10
2023-03-24T15:29:28.737Z,56.34
2023-03-24T15:31:04.584Z,56.53
2023-03-24T15:32:39.280Z,56.73
2023-03-24T15:34:12.981Z,56.74
2023-03-24T15:35:58.337Z,56.89
2023-03-24T15:37:41.043Z,56.92
2023-03-24T15:39:05.950Z,57.06
2023-03-24T15:40:30.445Z,57.12
2023-03-24T15:42:08.605Z,57.27
2023-03-24T15:43:49.563Z,57.89
2023-03-24T15:45:22.958Z,58.73
2023-03-24T15:47:16.625Z,59.29
2023-03-24T15:48:52.510Z,60.39
2023-03-24T15:50:16.545Z,61.56
2023-03-24T15:51:50.177Z,62.30
2023-03-24T15:53:14.274Z,63.33
2023-03-24T15:54:49.185Z,62.84
2023-03-24T15:56:42.423Z,60.11
2023-03-24T15:58:18.329Z,56.66
2023-03-24T15:59:54.357Z,57.09
2023-03-24T16:01:41.981Z,57.56
2023-03-24T16:03:16.870Z,59.81
2023-03-24T16:05:00.207Z,61.23
2023-03-24T16:06:30.169Z,63.71
2023-03-24T16:08:03.896Z,64.73
2023-03-24T16:09:57.577Z,63.05
2023-03-24T16:11:31.275Z,60.95
2023-03-24T16:13:17.425Z,59.30
2023-03-24T16:14:51.209Z,57.71
2023-03-24T16:16:17.787Z,59.04
2023-03-24T16:17:57.580Z,60.77
2023-03-24T16:19:33.607Z,63.38
2023-03-24T16:21:20.955Z,65.38
2023-03-24T16:22:59.816Z,64.01
2023-03-24T16:24:35.525Z,61.87
2023-03-24T16:25:57.714Z,60.76
2023-03-24T16:27:31.171Z,59.19
2023-03-24T16:28:55.409Z,58.42
2023-03-24T16:30:40.368Z,59.33
2023-03-24T16:32:25.669Z,61.46
2023-03-24T16:34:01.651Z,64.05
2023-03-24T16:35:25.692Z,65.28
2023-03-24T16:37:11.329Z,63.64
2023-03-24T16:38:52.329Z,61.21
2023-03-24T16:40:26.088Z,60.22
2023-03-24T16:41:48.300Z,58.99
2023-03-24T16:45:53.234Z,60.59
2023-03-24T16:47:26.737Z,63.78
2023-03-24T16:49:12.353Z,66.02
2023-03-24T16:50:57.813Z,64.86
2023-03-24T16:52:39.595Z,62.89
2023-03-24T16:54:12.936Z,61.24
2023-03-24T16:55:47.468Z,59.79
2023-03-24T16:57:11.590Z,58.76
2023-03-24T16:58:35.585Z,58.82
2023-03-24T17:00:11.812Z,60.32
2023-03-24T17:01:53.181Z,62.71
2023-03-24T17:03:17.856Z,65.20
2023-03-24T17:04:52.242Z,65.01
2023-03-24T17:06:14.171Z,63.30
2023-03-24T17:07:35.594Z,62.31
2023-03-24T17:09:10.579Z,60.91
2023-03-24T17:10:55.386Z,59.88
2023-03-24T17:12:31.338Z,58.94
2023-03-24T17:14:08.772Z,58.45
2023-03-24T17:15:30.643Z,59.98
2023-03-24T17:17:02.788Z,62.03
2023-03-24T17:18:43.593Z,64.39
2023-03-24T17:20:19.917Z,65.11
2023-03-24T17:21:41.885Z,63.87
2023-03-24T17:23:26.381Z,62.01
2023-03-24T17:24:48.962Z,60.53
2023-03-24T17:26:10.784Z,59.70
2023-03-24T17:27:51.834Z,58.42
2023-03-24T17:29:27.761Z,58.76
2023-03-24T17:31:09.122Z,60.71
2023-03-24T17:32:45.552Z,62.89
2023-03-24T17:34:22.139Z,65.23
2023-03-24T17:35:56.378Z,64.60
2023-03-24T17:37:29.769Z,62.62
2023-03-24T17:39:16.041Z,61.02
2023-03-24T17:40:37.935Z,59.62
2023-03-24T17:42:19.063Z,58.45
2023-03-24T17:44:01.603Z,58.95
2023-03-24T17:45:25.280Z,60.97
2023-03-24T17:46:58.910Z,63.39
2023-03-24T17:48:45.813Z,65.13
2023-03-24T17:50:31.706Z,64.01
2023-03-24T17:52:01.447Z,62.06
2023-03-24T17:53:39.320Z,60.90
2023-03-24T17:55:12.985Z,59.29
2023-03-24T17:56:46.392Z,58.22
2023-03-24T17:58:32.234Z,59.98
2023-03-24T18:00:07.173Z,61.89
2023-03-24T18:01:29.479Z,64.40
2023-03-24T18:02:52.712Z,65.64
2023-03-24T18:04:26.130Z,64.38
2023-03-24T18:06:19.701Z,62.10
2023-03-24T18:07:42.156Z,60.46
2023-03-24T18:09:07.433Z,59.46
2023-03-24T18:10:52.541Z,58.18
2023-03-24T18:12:25.860Z,58.79
2023-03-24T18:14:11.601Z,61.25
2023-03-24T18:16:13.155Z,63.95
2023-03-24T18:17:51.606Z,64.60
2023-03-24T18:19:24.954Z,63.00
2023-03-24T18:21:07.596Z,61.48
2023-03-24T18:22:42.896Z,60.04
2023-03-24T18:24:18.433Z,58.67
2023-03-24T18:25:47.547Z,58.78
2023-03-24T18:27:41.555Z,60.50
2023-03-24T18:29:22.741Z,62.86
2023-03-24T18:30:56.927Z,65.19
2023-03-24T18:32:41.029Z,64.33
2023-03-24T18:34:05.401Z,62.49
2023-03-24T18:35:38.700Z,60.70
2023-03-24T18:37:03.387Z,59.65
2023-03-24T18:38:52.337Z,58.26
2023-03-24T18:40:46.911Z,58.99
2023-03-24T18:42:21.148Z,61.27
2023-03-24T18:44:15.681Z,63.68
2023-03-24T18:45:49.144Z,65.02
2023-03-24T18:47:42.526Z,63.66
2023-03-24T18:49:19.141Z,61.38
2023-03-24T18:50:55.610Z,60.10
2023-03-24T18:52:28.470Z,58.81
2023-03-24T18:54:10.723Z,58.29
2023-03-24T18:55:56.091Z,60.15
2023-03-24T18:57:49.615Z,62.52
2023-03-24T18:59:34.377Z,64.74
2023-03-24T19:00:56.466Z,63.77
2023-03-24T19:02:18.458Z,62.26
2023-03-24T19:04:03.952Z,60.53
2023-03-24T19:05:57.027Z,59.20
2023-03-24T19:07:44.533Z,58.41
2023-03-24T19:09:18.253Z,59.78
2023-03-24T19:11:00.583Z,61.89
2023-03-24T19:12:24.459Z,64.74
2023-03-24T19:13:49.668Z,64.93
2023-03-24T19:15:18.932Z,63.30
2023-03-24T19:16:52.794Z,60.96
2023-03-24T19:18:28.342Z,59.31
2023-03-24T19:20:12.733Z,57.88
2023-03-24T19:21:56.312Z,59.01
2023-03-24T19:23:17.824Z,61.41
2023-03-24T19:25:02.050Z,63.40
2023-03-24T19:26:37.372Z,64.59
2023-03-24T19:27:59.592Z,62.79
2023-03-24T19:29:28.537Z,60.80
2023-03-24T19:31:05.902Z,58.53
2023-03-24T19:32:30.230Z,57.42
2023-03-24T19:34:11.740Z,58.74
2023-03-24T19:36:05.059Z,61.16
2023-03-24T19:37:40.613Z,63.22
2023-03-24T19:39:26.437Z,64.06
2023-03-24T19:40:55.925Z,62.30
2023-03-24T19:42:47.038Z,60.17
2023-03-24T19:44:22.293Z,57.51
2023-03-24T19:46:04.770Z,57.65
2023-03-24T19:47:30.465Z,59.77
2023-03-24T19:49:15.844Z,62.32
2023-03-24T19:50:52.943Z,65.23
2023-03-24T19:52:24.358Z,64.99
2023-03-24T19:54:09.996Z,63.42
2023-03-24T19:55:33.655Z,61.80
2023-03-24T19:56:55.951Z,60.22
2023-03-24T19:58:20.047Z,59.44
2023-03-24T19:59:49.442Z,58.26
2023-03-24T20:01:21.527Z,59.62
2023-03-24T20:02:46.124Z,61.00
2023-03-24T20:04:31.056Z,63.17
2023-03-24T20:06:18.484Z,62.77
2023-03-24T20:07:48.797Z,60.88
2023-03-24T20:09:13.375Z,58.68
2023-03-24T20:10:44.649Z,57.48
2023-03-24T20:12:39.573Z,58.93
2023-03-24T20:14:16.712Z,61.18
2023-03-24T20:16:05.288Z,63.84
2023-03-24T20:17:49.194Z,64.69
2023-03-24T20:19:43.659Z,62.35
2023-03-24T20:21:28.657Z,59.77
2023-03-24T20:23:13.932Z,57.17
2023-03-24T20:24:38.590Z,57.44
2023-03-24T20:26:12.646Z,59.27
2023-03-24T20:28:05.635Z,62.09
2023-03-24T20:29:46.607Z,64.44
2023-03-24T20:31:32.176Z,63.74
2023-03-24T20:33:05.999Z,61.78
2023-03-24T20:35:00.582Z,59.51
2023-03-24T20:36:29.678Z,57.88
2023-03-24T20:38:03.446Z,59.07
2023-03-24T20:39:36.595Z,61.04
2023-03-24T20:41:12.914Z,63.04
2023-03-24T20:42:49.558Z,65.31
2023-03-24T20:44:11.484Z,64.10
2023-03-24T20:45:47.451Z,61.74
2023-03-24T20:47:19.166Z,59.93
2023-03-24T20:48:53.098Z,58.40
2023-03-24T20:50:17.839Z,58.09
2023-03-24T20:51:51.652Z,59.72
2023-03-24T20:53:36.460Z,61.72
2023-03-24T20:55:01.572Z,64.38
2023-03-24T20:56:42.062Z,64.91
2023-03-24T20:58:08.106Z,62.89
2023-03-24T20:59:41.314Z,60.82
2023-03-24T21:01:20.533Z,58.29
2023-03-24T21:03:06.275Z,57.94
2023-03-24T21:04:46.857Z,59.44
2023-03-24T21:06:21.917Z,61.37
2023-03-24T21:07:45.872Z,63.85
2023-03-24T21:09:15.063Z,65.33
2023-03-24T21:10:57.286Z,63.85
2023-03-24T21:12:53.373Z,60.49
2023-03-24T21:14:35.823Z,56.81
2023-03-24T21:16:08.072Z,57.23
2023-03-24T21:17:32.853Z,58.87
2023-03-24T21:19:10.288Z,60.95